Time,TemperatureF,DewpointF,PressureIn,WindDirection,WindDirectionDegrees,WindSpeedMPH,WindSpeedGustMPH,Humidity,HourlyPrecipIn,Conditions,Clouds,dailyrainin,SoftwareType,DateUTC
2013-08-05 00:12:00,69.0,-99.9,-100.00,SSE,158,0.0,1.0,-999,0.00,,,0.00,,2013-08-05 05:12:00,
2013-08-05 00:22:00,69.0,-99.9,-100.00,SSE,158,0.0,1.0,-999,0.00,,,0.00,,2013-08-05 05:22:00,
2013-08-05 00:32:00,69.0,-99.9,-100.00,East,91,0.0,1.0,-999,0.00,,,0.00,,2013-08-05 05:32:00,
2013-08-05 00:43:00,69.0,-99.9,-100.00,East,91,0.0,1.0,-999,0.00,,,0.00,,2013-08-05 05:43:00,
2013-08-05 00:53:00,69.0,-99.9,-100.00,East,91,0.0,1.0,-999,0.00,,,0.00,,2013-08-05 05:53:00,
2013-08-05 01:02:00,68.0,-99.9,-100.00,South,188,0.0,1.0,-999,0.00,,,0.00,,2013-08-05 06:02:00,
2013-08-05 01:12:00,68.0,-99.9,-100.00,South,188,0.0,1.0,-999,0.00,,,0.00,,2013-08-05 06:12:00,
2013-08-05 01:22:00,68.0,-99.9,-100.00,South,188,0.0,1.0,-999,0.00,,,0.00,,2013-08-05 06:22:00,
2013-08-05 01:32:00,67.0,-99.9,-100.00,SW,222,0.0,1.0,-999,0.00,,,0.00,,2013-08-05 06:32:00,
2013-08-05 01:43:00,67.0,-99.9,-100.00,SW,222,0.0,1.0,-999,0.00,,,0.00,,2013-08-05 06:43:00,
2013-08-05 01:52:00,67.0,-99.9,-100.00,SW,222,0.0,1.0,-999,0.00,,,0.00,,2013-08-05 06:52:00,
2013-08-05 02:02:00,66.0,-99.9,-100.00,South,176,0.0,0.0,-999,0.00,,,0.00,,2013-08-05 07:02:00,
2013-08-05 02:12:00,66.0,-99.9,-100.00,South,176,0.0,0.0,-999,0.00,,,0.00,,2013-08-05 07:12:00,
2013-08-05 02:22:00,66.0,-99.9,-100.00,South,176,0.0,0.0,-999,0.00,,,0.00,,2013-08-05 07:22:00,
2013-08-05 02:32:00,66.0,-99.9,-100.00,ESE,102,0.0,2.0,-999,0.00,,,0.00,,2013-08-05 07:32:00,
2013-08-05 02:43:00,66.0,-99.9,-100.00,ESE,102,0.0,2.0,-999,0.00,,,0.00,,2013-08-05 07:43:00,
2013-08-05 02:53:00,66.0,-99.9,-100.00,ESE,102,0.0,2.0,-999,0.00,,,0.00,,2013-08-05 07:53:00,
2013-08-05 03:12:00,66.0,-99.9,-100.00,South,169,0.0,2.0,-999,0.00,,,0.00,,2013-08-05 08:12:00,
2013-08-05 03:22:00,66.0,-99.9,-100.00,South,169,0.0,2.0,-999,0.00,,,0.00,,2013-08-05 08:22:00,
2013-08-05 03:53:00,66.0,-99.9,-100.00,South,176,0.0,1.0,-999,0.00,,,0.00,,2013-08-05 08:53:00,
2013-08-05 04:10:00,66.0,-99.9,-100.00,SSW,213,0.0,2.0,-999,0.00,,,0.00,,2013-08-05 09:10:00,
2013-08-05 04:20:00,66.0,-99.9,-100.00,SSW,213,0.0,2.0,-999,0.00,,,0.00,,2013-08-05 09:20:00,
2013-08-05 04:29:00,66.0,-99.9,-100.00,SSW,213,0.0,2.0,-999,0.00,,,0.00,,2013-08-05 09:29:00,
2013-08-05 04:44:00,65.0,-99.9,-100.00,ENE,74,4.0,6.0,-999,0.00,,,0.00,,2013-08-05 09:44:00,
2013-08-05 04:49:00,65.0,-99.9,-100.00,ENE,74,4.0,6.0,-999,0.00,,,0.00,,2013-08-05 09:49:00,
2013-08-05 05:13:00,65.0,-99.9,-100.00,ESE,102,3.0,4.0,-999,0.00,,,0.00,,2013-08-05 10:13:00,
2013-08-05 05:28:00,65.0,-99.9,-100.00,ESE,102,3.0,4.0,-999,0.00,,,0.00,,2013-08-05 10:28:00,
2013-08-05 05:30:00,63.0,-99.9,-100.00,East,99,3.0,5.0,-999,0.00,,,0.00,,2013-08-05 10:30:00,
2013-08-05 05:38:00,63.0,-99.9,-100.00,ESE,115,2.0,3.0,-999,0.00,,,0.00,,2013-08-05 10:38:00,
2013-08-05 05:49:00,63.0,-99.9,-100.00,ESE,115,2.0,3.0,-999,0.00,,,0.00,,2013-08-05 10:49:00,
2013-08-05 06:00:00,63.0,-99.9,-100.00,ESE,113,2.0,3.0,-999,0.00,,,0.00,,2013-08-05 11:00:00,
2013-08-05 06:14:00,63.0,-99.9,-100.00,East,99,3.0,5.0,-999,0.00,,,0.00,,2013-08-05 11:14:00,
2013-08-05 06:38:00,63.0,-99.9,-100.00,ESE,113,2.0,3.0,-999,0.00,,,0.00,,2013-08-05 11:38:00,
2013-08-05 07:00:00,64.0,-99.9,-100.00,East,99,1.0,3.0,-999,0.00,,,0.00,,2013-08-05 12:00:00,
2013-08-05 07:17:00,63.0,-99.9,-100.00,ESE,106,2.0,4.0,-999,0.00,,,0.00,,2013-08-05 12:17:00,
2013-08-05 07:27:00,63.0,-99.9,-100.00,ESE,106,2.0,4.0,-999,0.00,,,0.00,,2013-08-05 12:27:00,
2013-08-05 07:30:00,65.0,-99.9,-100.00,North,359,7.0,11.0,-999,0.00,,,0.00,,2013-08-05 12:30:00,
2013-08-05 07:34:00,64.0,-99.9,-100.00,East,99,1.0,3.0,-999,0.00,,,0.00,,2013-08-05 12:34:00,
2013-08-05 07:54:00,64.0,-99.9,-100.00,East,99,1.0,3.0,-999,0.00,,,0.00,,2013-08-05 12:54:00,
2013-08-05 08:05:00,65.0,-99.9,-100.00,North,359,7.0,11.0,-999,0.00,,,0.00,,2013-08-05 13:05:00,
2013-08-05 08:14:00,65.0,-99.9,-100.00,North,359,7.0,11.0,-999,0.00,,,0.00,,2013-08-05 13:14:00,
2013-08-05 08:30:00,63.0,-99.9,-100.00,NE,41,7.0,10.0,-999,0.00,,,0.00,,2013-08-05 13:30:00,
2013-08-05 08:41:00,65.0,-99.9,-100.00,East,95,5.0,7.0,-999,0.00,,,0.00,,2013-08-05 13:41:00,
2013-08-05 08:54:00,65.0,-99.9,-100.00,East,95,5.0,7.0,-999,0.00,,,0.00,,2013-08-05 13:54:00,
2013-08-05 09:17:00,63.0,-99.9,-100.00,NE,41,7.0,10.0,-999,0.00,,,0.00,,2013-08-05 14:17:00,
2013-08-05 09:30:00,62.0,-99.9,-100.00,East,93,6.0,8.0,-999,0.08,,,0.08,,2013-08-05 14:30:00,
2013-08-05 09:50:00,62.0,-99.9,-100.00,ESE,112,5.0,8.0,-999,0.05,,,0.05,,2013-08-05 14:50:00,
2013-08-05 10:08:00,62.0,-99.9,-100.00,East,93,6.0,8.0,-999,0.08,,,0.08,,2013-08-05 15:08:00,
2013-08-05 10:18:00,62.0,-99.9,-100.00,East,93,6.0,8.0,-999,0.08,,,0.08,,2013-08-05 15:18:00,
2013-08-05 10:25:00,62.0,-99.9,-100.00,East,93,6.0,8.0,-999,0.08,,,0.08,,2013-08-05 15:25:00,
2013-08-05 11:00:00,62.0,-99.9,-100.00,East,94,10.0,12.0,-999,0.60,,,0.71,,2013-08-05 16:00:00,
2013-08-05 11:18:00,62.0,-99.9,-100.00,NE,45,12.0,16.0,-999,0.48,,,0.56,,2013-08-05 16:18:00,
2013-08-05 11:28:00,62.0,-99.9,-100.00,NE,45,12.0,16.0,-999,0.48,,,0.56,,2013-08-05 16:28:00,
2013-08-05 11:45:00,62.0,-99.9,-100.00,East,94,10.0,12.0,-999,0.60,,,0.71,,2013-08-05 16:45:00,
2013-08-05 12:00:00,63.0,-99.9,-100.00,ESE,110,9.0,14.0,-999,0.00,,,0.71,,2013-08-05 17:00:00,
2013-08-05 12:17:00,62.0,-99.9,-100.00,ESE,105,9.0,15.0,-999,0.15,,,0.71,,2013-08-05 17:17:00,
2013-08-05 12:22:00,62.0,-99.9,-100.00,ESE,105,9.0,15.0,-999,0.15,,,0.71,,2013-08-05 17:22:00,
2013-08-05 12:50:00,63.0,-99.9,-100.00,ESE,110,9.0,14.0,-999,0.00,,,0.71,,2013-08-05 17:50:00,
2013-08-05 13:08:00,65.0,-99.9,-100.00,ESE,114,9.0,13.0,-999,0.00,,,0.71,,2013-08-05 18:08:00,
2013-08-05 13:14:00,65.0,-99.9,-100.00,ESE,114,9.0,13.0,-999,0.00,,,0.71,,2013-08-05 18:14:00,
2013-08-05 13:27:00,65.0,-99.9,-100.00,ESE,114,9.0,13.0,-999,0.00,,,0.71,,2013-08-05 18:27:00,
2013-08-05 14:16:00,70.0,-99.9,-100.00,SSE,147,1.0,5.0,-999,0.01,,,0.72,,2013-08-05 19:16:00,
2013-08-05 14:28:00,70.0,-99.9,-100.00,SSE,147,1.0,5.0,-999,0.01,,,0.72,,2013-08-05 19:28:00,
2013-08-05 14:30:00,70.0,-99.9,-100.00,SE,146,2.0,9.0,-999,0.00,,,0.72,,2013-08-05 19:30:00,
2013-08-05 14:39:00,69.0,-99.9,-100.00,SE,131,2.0,10.0,-999,0.00,,,0.72,,2013-08-05 19:39:00,
2013-08-05 14:59:00,69.0,-99.9,-100.00,SE,131,2.0,10.0,-999,0.00,,,0.72,,2013-08-05 19:59:00,
2013-08-05 15:15:00,70.0,-99.9,-100.00,SE,146,2.0,9.0,-999,0.00,,,0.72,,2013-08-05 20:15:00,
2013-08-05 15:41:00,73.0,-99.9,-100.00,SSE,152,1.0,8.0,-999,0.00,,,0.72,,2013-08-05 20:41:00,
2013-08-05 15:48:00,73.0,-99.9,-100.00,SSE,152,1.0,8.0,-999,0.00,,,0.72,,2013-08-05 20:48:00,
2013-08-05 16:12:00,75.0,-99.9,-100.00,SE,144,2.0,7.0,-999,-99.99,,,0.72,,2013-08-05 21:12:00,
2013-08-05 16:20:00,75.0,-99.9,-100.00,SE,144,2.0,7.0,-999,-99.99,,,0.72,,2013-08-05 21:20:00,
2013-08-05 16:28:00,75.0,-99.9,-100.00,SE,144,2.0,7.0,-999,-99.99,,,0.72,,2013-08-05 21:28:00,
2013-08-05 16:48:00,73.0,-99.9,-100.00,SSE,164,2.0,5.0,-999,0.00,,,0.72,,2013-08-05 21:48:00,
2013-08-05 16:54:00,73.0,-99.9,-100.00,SSE,164,2.0,5.0,-999,0.00,,,0.72,,2013-08-05 21:54:00,
2013-08-05 17:17:00,74.0,-99.9,-100.00,South,176,1.0,3.0,-999,0.00,,,0.72,,2013-08-05 22:17:00,
2013-08-05 17:28:00,74.0,-99.9,-100.00,South,176,1.0,3.0,-999,0.00,,,0.72,,2013-08-05 22:28:00,
2013-08-05 17:38:00,73.0,-99.9,-100.00,ESE,118,5.0,9.0,-999,0.00,,,0.72,,2013-08-05 22:38:00,
2013-08-05 17:46:00,73.0,-99.9,-100.00,ESE,118,5.0,9.0,-999,0.00,,,0.72,,2013-08-05 22:46:00,
2013-08-05 17:54:00,73.0,-99.9,-100.00,ESE,118,5.0,9.0,-999,0.00,,,0.72,,2013-08-05 22:54:00,
2013-08-05 18:00:00,72.0,-99.9,-100.00,SE,131,3.0,7.0,-999,0.00,,,0.72,,2013-08-05 23:00:00,
2013-08-05 18:18:00,73.0,-99.9,-100.00,ESE,119,3.0,7.0,-999,0.00,,,0.72,,2013-08-05 23:18:00,
2013-08-05 18:29:00,73.0,-99.9,-100.00,ESE,119,3.0,7.0,-999,0.00,,,0.72,,2013-08-05 23:29:00,
2013-08-05 18:46:00,72.0,-99.9,-100.00,SE,131,3.0,7.0,-999,0.00,,,0.72,,2013-08-05 23:46:00,
2013-08-05 19:03:00,72.0,-99.9,-100.00,ESE,102,4.0,6.0,-999,0.00,,,0.72,,2013-08-06 00:03:00,
2013-08-05 19:15:00,72.0,-99.9,-100.00,ESE,102,4.0,6.0,-999,0.00,,,0.72,,2013-08-06 00:15:00,
2013-08-05 19:24:00,72.0,-99.9,-100.00,ESE,102,4.0,6.0,-999,0.00,,,0.72,,2013-08-06 00:24:00,
2013-08-05 19:37:00,72.0,-99.9,-100.00,ESE,107,4.0,5.0,-999,0.00,,,0.72,,2013-08-06 00:37:00,
2013-08-05 19:57:00,72.0,-99.9,-100.00,ESE,107,4.0,5.0,-999,0.00,,,0.72,,2013-08-06 00:57:00,
2013-08-05 20:00:00,71.0,-99.9,-100.00,ESE,105,2.0,4.0,-999,0.00,,,0.72,,2013-08-06 01:00:00,
2013-08-05 20:13:00,72.0,-99.9,-100.00,ESE,118,2.0,4.0,-999,0.00,,,0.72,,2013-08-06 01:13:00,
2013-08-05 20:28:00,72.0,-99.9,-100.00,ESE,118,2.0,4.0,-999,0.00,,,0.72,,2013-08-06 01:28:00,
2013-08-05 20:54:00,71.0,-99.9,-100.00,ESE,105,2.0,4.0,-999,0.00,,,0.72,,2013-08-06 01:54:00,
2013-08-05 21:12:00,71.0,-99.9,-100.00,ESE,122,2.0,4.0,-999,0.00,,,0.72,,2013-08-06 02:12:00,
2013-08-05 21:27:00,71.0,-99.9,-100.00,ESE,122,2.0,4.0,-999,0.00,,,0.72,,2013-08-06 02:27:00,
2013-08-05 21:33:00,70.0,-99.9,-100.00,East,99,1.0,4.0,-999,0.00,,,0.72,,2013-08-06 02:33:00,
2013-08-05 21:51:00,70.0,-99.9,-100.00,East,99,1.0,4.0,-999,0.00,,,0.72,,2013-08-06 02:51:00,
2013-08-05 22:02:00,70.0,-99.9,-100.00,East,97,1.0,3.0,-999,0.00,,,0.72,,2013-08-06 03:02:00,
2013-08-05 22:19:00,70.0,-99.9,-100.00,East,97,1.0,3.0,-999,0.00,,,0.72,,2013-08-06 03:19:00,
2013-08-05 22:27:00,70.0,-99.9,-100.00,East,97,1.0,3.0,-999,0.00,,,0.72,,2013-08-06 03:27:00,
2013-08-05 22:35:00,70.0,-99.9,-100.00,ESE,123,0.0,1.0,-999,0.00,,,0.72,,2013-08-06 03:35:00,
2013-08-05 22:46:00,70.0,-99.9,-100.00,ESE,123,0.0,1.0,-999,0.00,,,0.72,,2013-08-06 03:46:00,
2013-08-05 22:53:00,70.0,-99.9,-100.00,ESE,123,0.0,1.0,-999,0.00,,,0.72,,2013-08-06 03:53:00,
2013-08-05 23:12:00,70.0,-99.9,-100.00,South,170,1.0,1.0,-999,0.00,,,0.72,,2013-08-06 04:12:00,
2013-08-05 23:22:00,70.0,-99.9,-100.00,South,170,1.0,1.0,-999,0.00,,,0.72,,2013-08-06 04:22:00,
2013-08-05 23:33:00,69.0,-99.9,-100.00,SSW,206,0.0,1.0,-999,0.00,,,0.72,,2013-08-06 04:33:00,
2013-08-05 23:44:00,69.0,-99.9,-100.00,SSW,206,0.0,1.0,-999,0.00,,,0.72,,2013-08-06 04:44:00,
2013-08-05 23:54:00,69.0,-99.9,-100.00,SSW,206,0.0,1.0,-999,0.00,,,0.72,,2013-08-06 04:54:00,